createdAt,value
2022-10-04T00:02:00.553Z,10.85
2022-10-04T00:04:31.439Z,11.43
2022-10-04T00:07:23.032Z,10.95
2022-10-04T00:09:57.522Z,12.48
2022-10-04T00:12:38.425Z,10.40
2022-10-04T00:15:20.199Z,10.77
2022-10-04T00:18:20.541Z,10.05
2022-10-04T00:20:53.280Z,10.07
2022-10-04T00:23:24.082Z,10.43
2022-10-04T00:25:53.088Z,12.45
2022-10-04T00:28:20.921Z,12.32
2022-10-04T00:31:19.527Z,13.70
2022-10-04T00:33:51.390Z,11.25
2022-10-04T00:36:25.027Z,11.63
2022-10-04T00:39:07.687Z,13.38
2022-10-04T00:41:47.675Z,12.52
2022-10-04T00:44:51.853Z,11.07
2022-10-04T00:47:31.708Z,9.57
2022-10-04T00:50:22.456Z,11.70
2022-10-04T00:52:57.677Z,10.23
2022-10-04T00:55:51.570Z,10.15
2022-10-04T00:58:25.480Z,9.10
2022-10-04T01:00:55.612Z,12.67
2022-10-04T01:03:37.368Z,9.68
2022-10-04T01:06:09.171Z,13.70
2022-10-04T01:08:47.417Z,11.20
2022-10-04T01:11:27.259Z,10.00
2022-10-04T01:14:01.893Z,13.10
2022-10-04T01:16:33.610Z,12.38
2022-10-04T01:19:21.640Z,11.50
2022-10-04T01:22:09.820Z,13.20
2022-10-04T01:24:43.143Z,8.98
2022-10-04T01:27:43.198Z,13.13
2022-10-04T01:30:14.769Z,8.73
2022-10-04T01:32:45.251Z,12.55
2022-10-04T01:35:15.246Z,7.30
2022-10-04T01:37:43.815Z,12.02
2022-10-04T01:40:12.043Z,10.88
2022-10-04T01:42:54.938Z,9.82
2022-10-04T01:45:46.774Z,12.52
2022-10-04T01:48:22.170Z,9.50
2022-10-04T01:50:59.499Z,10.20
2022-10-04T01:53:34.756Z,10.55
2022-10-04T01:56:10.936Z,12.15
2022-10-04T01:58:46.959Z,12.82
2022-10-04T02:01:32.846Z,14.75
2022-10-04T02:04:22.605Z,13.80
2022-10-04T02:06:56.579Z,9.30
2022-10-04T02:09:28.452Z,10.18
2022-10-04T02:11:59.101Z,13.73
2022-10-04T02:14:29.878Z,12.90
2022-10-04T02:16:58.654Z,12.73
2022-10-04T02:19:34.006Z,13.68
2022-10-04T02:22:07.205Z,10.13
2022-10-04T02:24:42.112Z,17.42
2022-10-04T02:27:10.457Z,12.73
2022-10-04T02:29:38.745Z,16.05
2022-10-04T02:32:27.216Z,12.88
2022-10-04T02:34:57.342Z,11.77
2022-10-04T02:37:27.485Z,13.00
2022-10-04T02:40:08.227Z,14.43
2022-10-04T02:42:46.802Z,12.35
2022-10-04T02:45:43.694Z,17.77
2022-10-04T02:48:52.378Z,10.63
2022-10-04T02:51:26.309Z,13.07
2022-10-04T02:54:21.282Z,15.82
2022-10-04T02:56:55.147Z,14.20
2022-10-04T02:59:23.482Z,13.50
2022-10-04T03:01:58.804Z,17.23
2022-10-04T03:04:37.641Z,16.77
2022-10-04T03:07:08.479Z,17.58
2022-10-04T03:09:38.079Z,15.93
2022-10-04T03:12:10.817Z,16.70
2022-10-04T03:14:39.467Z,17.20
2022-10-04T03:17:08.468Z,15.80
2022-10-04T03:19:38.811Z,12.43
2022-10-04T03:22:12.783Z,15.02
2022-10-04T03:24:46.925Z,16.95
2022-10-04T03:27:26.264Z,18.65
2022-10-04T03:29:59.028Z,12.27
2022-10-04T03:32:30.582Z,16.80
2022-10-04T03:35:02.743Z,15.60
2022-10-04T03:37:34.985Z,12.82
2022-10-04T03:40:04.604Z,17.35
2022-10-04T03:42:37.916Z,14.73
2022-10-04T03:45:14.021Z,14.30
2022-10-04T03:47:46.732Z,17.63
2022-10-04T03:50:26.482Z,15.18
2022-10-04T03:53:01.511Z,16.33
2022-10-04T03:58:02.928Z,23.08
2022-10-04T04:00:31.558Z,14.00
2022-10-04T04:03:03.755Z,19.77
2022-10-04T04:05:45.858Z,21.90
2022-10-04T04:08:36.265Z,16.38
2022-10-04T04:11:06.957Z,18.35
2022-10-04T04:13:49.103Z,17.23
2022-10-04T04:16:19.137Z,17.30
2022-10-04T04:18:49.220Z,15.75
2022-10-04T04:21:20.089Z,15.13
2022-10-04T04:23:52.326Z,16.05
2022-10-04T04:26:20.089Z,17.58
2022-10-04T04:29:02.780Z,20.10
2022-10-04T04:31:56.302Z,17.48
2022-10-04T04:34:33.262Z,18.98
2022-10-04T04:37:03.763Z,15.98
2022-10-04T04:39:37.137Z,18.35
2022-10-04T04:42:05.860Z,16.92
2022-10-04T04:44:34.051Z,24.63
2022-10-04T04:47:05.601Z,18.02
2022-10-04T04:49:38.320Z,18.80
2022-10-04T04:52:13.557Z,17.65
2022-10-04T04:54:41.570Z,16.13
2022-10-04T04:57:09.361Z,21.73
2022-10-04T04:59:37.274Z,22.75
2022-10-04T05:02:25.197Z,26.58
2022-10-04T05:05:21.697Z,19.48
2022-10-04T05:07:50.302Z,19.75
2022-10-04T05:10:34.499Z,20.40
2022-10-04T05:13:04.247Z,20.55
2022-10-04T05:15:35.270Z,18.13
2022-10-04T05:18:30.489Z,21.45
2022-10-04T05:21:05.823Z,23.77
2022-10-04T05:23:35.033Z,19.55
2022-10-04T05:26:04.594Z,22.95
2022-10-04T05:28:34.253Z,26.33
2022-10-04T05:31:16.791Z,19.60
2022-10-04T05:33:52.261Z,23.35
2022-10-04T05:36:48.046Z,20.27
2022-10-04T05:39:34.247Z,26.73
2022-10-04T05:42:41.511Z,17.65
2022-10-04T05:45:23.380Z,19.48
2022-10-04T05:47:53.846Z,20.60
2022-10-04T05:50:35.418Z,19.73
2022-10-04T05:53:33.505Z,21.20
2022-10-04T05:56:34.814Z,24.75
2022-10-04T05:59:21.466Z,32.47
2022-10-04T06:01:52.199Z,23.67
2022-10-04T06:04:56.361Z,23.90
2022-10-04T06:07:37.476Z,27.50
2022-10-04T06:10:08.309Z,24.88
2022-10-04T06:13:04.539Z,24.67
2022-10-04T06:15:48.690Z,22.80
2022-10-04T06:18:31.310Z,22.70
2022-10-04T06:21:13.307Z,30.83
2022-10-04T06:23:56.940Z,23.27
2022-10-04T06:26:45.353Z,22.13
2022-10-04T06:29:21.210Z,23.08
2022-10-04T06:32:15.610Z,28.70
2022-10-04T06:34:58.965Z,22.20
2022-10-04T06:37:57.244Z,24.05
2022-10-04T06:40:47.014Z,25.95
2022-10-04T06:43:47.081Z,23.85
2022-10-04T06:46:56.379Z,23.02
2022-10-04T06:49:41.449Z,23.02
2022-10-04T06:52:40.618Z,19.00
2022-10-04T06:55:37.867Z,19.27
2022-10-04T06:58:24.768Z,18.23
2022-10-04T07:01:03.601Z,21.17
2022-10-04T07:03:32.645Z,20.63
2022-10-04T07:06:05.697Z,19.83
2022-10-04T07:08:52.533Z,18.15
2022-10-04T07:11:32.776Z,16.67
2022-10-04T07:14:44.990Z,17.67
2022-10-04T07:17:24.530Z,17.15
2022-10-04T07:19:56.787Z,13.20
2022-10-04T07:22:57.828Z,17.95
2022-10-04T07:25:33.937Z,20.15
2022-10-04T07:28:33.592Z,16.00
2022-10-04T07:31:09.610Z,12.45
2022-10-04T07:33:52.366Z,12.07
2022-10-04T07:36:33.059Z,12.15
2022-10-04T07:39:20.901Z,14.93
2022-10-04T07:42:00.193Z,14.85
2022-10-04T07:44:40.866Z,13.98
2022-10-04T07:47:20.456Z,12.95
2022-10-04T07:49:53.886Z,15.25
2022-10-04T07:52:33.888Z,11.60
2022-10-04T07:55:23.088Z,17.35
2022-10-04T07:58:07.336Z,15.13
2022-10-04T08:01:07.207Z,17.58
2022-10-04T08:03:47.213Z,11.35
2022-10-04T08:06:39.550Z,12.38
2022-10-04T08:09:41.970Z,11.13
2022-10-04T08:12:24.196Z,9.75
2022-10-04T08:14:54.761Z,11.20
2022-10-04T08:17:51.659Z,12.07
2022-10-04T08:20:47.869Z,11.30
2022-10-04T08:23:42.391Z,12.23
2022-10-04T08:26:40.579Z,11.40
2022-10-04T08:29:36.485Z,11.55
2022-10-04T08:32:23.445Z,10.05
2022-10-04T08:35:03.071Z,11.30
2022-10-04T08:37:45.949Z,10.43
2022-10-04T08:40:33.273Z,10.18
2022-10-04T08:43:44.593Z,9.77
2022-10-04T08:46:32.096Z,11.60
2022-10-04T08:49:35.665Z,11.52
2022-10-04T08:52:48.899Z,12.20
2022-10-04T08:55:16.896Z,10.15
2022-10-04T08:57:45.198Z,9.35
2022-10-04T09:00:20.556Z,11.27
2022-10-04T09:03:16.853Z,9.95
2022-10-04T09:05:50.438Z,8.15
2022-10-04T09:08:19.074Z,8.13
2022-10-04T09:11:38.328Z,8.43
2022-10-04T09:14:51.297Z,13.30
2022-10-04T09:18:13.157Z,9.73
2022-10-04T09:21:18.795Z,8.57
2022-10-04T09:24:28.733Z,10.32
2022-10-04T09:27:03.574Z,6.18
2022-10-04T09:30:01.555Z,7.53
2022-10-04T09:33:01.961Z,8.73
2022-10-04T09:35:42.114Z,8.65
2022-10-04T09:38:41.833Z,8.63
2022-10-04T09:41:40.363Z,7.18
2022-10-04T09:44:40.466Z,7.57
2022-10-04T09:47:24.278Z,7.78
2022-10-04T09:50:20.557Z,8.52
2022-10-04T09:53:13.812Z,11.32
2022-10-04T09:56:25.097Z,13.38
2022-10-04T09:59:25.710Z,9.30
2022-10-04T10:02:31.456Z,8.50
2022-10-04T10:05:28.024Z,7.38
2022-10-04T10:08:23.870Z,8.48
2022-10-04T10:11:33.672Z,6.85
2022-10-04T10:14:34.429Z,9.98
2022-10-04T10:17:23.805Z,8.48
2022-10-04T10:20:03.996Z,8.15
2022-10-04T10:22:46.095Z,11.27
2022-10-04T10:25:29.268Z,11.20
2022-10-04T10:28:02.937Z,8.10
2022-10-04T10:30:56.716Z,9.40
2022-10-04T10:33:45.505Z,6.80
2022-10-04T10:36:22.189Z,7.28
2022-10-04T10:39:01.249Z,6.55
2022-10-04T10:41:35.633Z,7.03
2022-10-04T10:44:47.910Z,7.43
2022-10-04T10:47:34.518Z,8.48
2022-10-04T10:50:58.452Z,8.73
2022-10-04T10:53:50.542Z,8.82
2022-10-04T10:56:35.299Z,8.38
2022-10-04T10:59:22.743Z,10.20
2022-10-04T11:02:37.220Z,10.98
2022-10-04T11:05:20.478Z,5.72
2022-10-04T11:08:27.746Z,6.57
2022-10-04T11:11:37.178Z,11.27
2022-10-04T11:14:27.228Z,9.70
2022-10-04T11:17:21.337Z,7.68
2022-10-04T11:20:04.304Z,8.00
2022-10-04T11:23:01.996Z,8.25
2022-10-04T11:25:39.796Z,9.05
2022-10-04T11:28:47.227Z,5.28
2022-10-04T11:31:57.314Z,5.65
2022-10-04T11:34:47.637Z,7.80
2022-10-04T11:37:41.465Z,6.30
2022-10-04T11:40:31.315Z,3.92
2022-10-04T11:43:24.759Z,8.55
2022-10-04T11:46:33.744Z,8.63
2022-10-04T11:49:21.436Z,8.75
2022-10-04T11:52:07.954Z,9.23
2022-10-04T11:54:47.952Z,7.90
2022-10-04T11:57:39.123Z,9.40
2022-10-04T12:00:24.805Z,8.07
2022-10-04T12:03:05.600Z,6.05
2022-10-04T12:05:51.251Z,5.63
2022-10-04T12:08:25.412Z,6.97
2022-10-04T12:11:14.921Z,7.28
2022-10-04T12:14:02.438Z,7.80
2022-10-04T12:16:31.145Z,5.63
2022-10-04T12:19:34.829Z,9.00
2022-10-04T12:22:41.553Z,6.45
2022-10-04T12:25:44.395Z,7.70
2022-10-04T12:28:42.679Z,8.38
2022-10-04T12:31:25.529Z,6.55
2022-10-04T12:34:03.976Z,7.75
2022-10-04T12:36:50.515Z,10.65
2022-10-04T12:39:34.045Z,5.95
2022-10-04T12:42:29.207Z,8.35
2022-10-04T12:45:40.527Z,6.25
2022-10-04T12:48:14.752Z,7.20
2022-10-04T12:50:54.628Z,11.50
2022-10-04T12:53:58.571Z,7.15
2022-10-04T12:57:04.380Z,7.45
2022-10-04T12:59:59.641Z,11.98
2022-10-04T13:02:49.387Z,9.68
2022-10-04T13:05:54.498Z,6.63
2022-10-04T13:08:46.991Z,7.47
2022-10-04T13:11:33.899Z,7.18
2022-10-04T13:14:20.395Z,7.57
2022-10-04T13:17:35.375Z,6.47
2022-10-04T13:20:19.135Z,9.88
2022-10-04T13:23:21.984Z,8.25
2022-10-04T13:26:12.305Z,7.28
2022-10-04T13:28:53.763Z,9.52
2022-10-04T13:31:45.865Z,7.20
2022-10-04T13:34:43.097Z,11.50
2022-10-04T13:37:30.554Z,7.65
2022-10-04T13:40:21.565Z,8.98
2022-10-04T13:43:12.750Z,5.85
2022-10-04T13:46:02.541Z,6.13
2022-10-04T13:48:51.672Z,6.85
2022-10-04T13:51:44.112Z,6.38
2022-10-04T13:54:49.942Z,7.85
2022-10-04T13:57:30.868Z,5.13
2022-10-04T14:00:37.001Z,7.38
2022-10-04T14:03:30.746Z,8.52
2022-10-04T14:06:19.789Z,4.72
2022-10-04T14:09:13.184Z,5.70
2022-10-04T14:11:47.774Z,5.53
2022-10-04T14:14:43.718Z,7.65
2022-10-04T14:17:23.893Z,6.90
2022-10-04T14:20:24.012Z,6.57
2022-10-04T14:23:26.522Z,7.85
2022-10-04T14:26:05.069Z,6.95
2022-10-04T14:28:46.765Z,7.85
2022-10-04T14:31:52.339Z,4.95
2022-10-04T14:34:40.400Z,4.68
2022-10-04T14:37:37.782Z,6.38
2022-10-04T14:40:48.359Z,4.53
2022-10-04T14:43:28.121Z,5.28
2022-10-04T14:46:34.725Z,7.70
2022-10-04T14:49:11.441Z,9.48
2022-10-04T14:51:39.581Z,7.55
2022-10-04T14:54:22.834Z,8.52
2022-10-04T14:57:21.738Z,7.00
2022-10-04T15:00:15.777Z,8.57
2022-10-04T15:03:25.563Z,5.00
2022-10-04T15:05:53.454Z,8.30
2022-10-04T15:08:25.127Z,6.32
2022-10-04T15:10:58.385Z,7.45
2022-10-04T15:13:55.884Z,6.07
2022-10-04T15:16:50.336Z,4.90
2022-10-04T15:19:20.855Z,5.07
2022-10-04T15:22:21.090Z,6.90
2022-10-04T15:24:53.334Z,9.65
2022-10-04T15:27:32.998Z,5.60
2022-10-04T15:30:04.144Z,5.97
2022-10-04T15:32:50.471Z,6.50
2022-10-04T15:35:40.822Z,6.72
2022-10-04T15:38:42.457Z,8.98
2022-10-04T15:41:35.316Z,10.45
2022-10-04T15:44:12.721Z,5.80
2022-10-04T15:46:52.253Z,6.25
2022-10-04T15:49:49.313Z,7.63
2022-10-04T15:52:41.291Z,6.47
2022-10-04T15:55:36.630Z,10.02
2022-10-04T16:00:51.764Z,5.90
2022-10-04T16:04:00.323Z,5.78
2022-10-04T16:06:44.057Z,6.35
2022-10-04T16:09:24.087Z,5.83
2022-10-04T16:12:17.850Z,6.65
2022-10-04T16:15:08.268Z,4.38
2022-10-04T16:17:44.423Z,6.00
2022-10-04T16:20:30.005Z,6.93
2022-10-04T16:23:28.695Z,6.43
2022-10-04T16:25:59.359Z,9.73
2022-10-04T16:28:46.207Z,7.18
2022-10-04T16:31:26.966Z,7.05
2022-10-04T16:34:15.678Z,7.25
2022-10-04T16:37:00.434Z,6.75
2022-10-04T16:39:54.953Z,10.32
2022-10-04T16:42:35.158Z,8.90
2022-10-04T16:45:09.224Z,5.40
2022-10-04T16:47:52.771Z,8.02
2022-10-04T16:50:49.416Z,8.45
2022-10-04T16:53:40.646Z,7.13
2022-10-04T16:56:18.604Z,7.68
2022-10-04T16:58:59.393Z,11.52
2022-10-04T17:01:45.145Z,8.15
2022-10-04T17:04:49.298Z,7.55
2022-10-04T17:07:36.116Z,8.38
2022-10-04T17:10:40.304Z,12.32
2022-10-04T17:13:28.852Z,8.90
2022-10-04T17:16:12.068Z,9.82
2022-10-04T17:19:16.003Z,7.82
2022-10-04T17:21:58.674Z,9.73
2022-10-04T17:24:32.670Z,7.57
2022-10-04T17:27:22.525Z,6.45
2022-10-04T17:29:58.501Z,7.93
2022-10-04T17:32:35.630Z,8.10
2022-10-04T17:35:35.001Z,8.48
2022-10-04T17:38:17.376Z,13.82
2022-10-04T17:40:59.687Z,8.15
2022-10-04T17:43:55.732Z,7.57
2022-10-04T17:46:34.754Z,7.55
2022-10-04T17:49:54.470Z,8.13
2022-10-04T17:52:52.933Z,8.10
2022-10-04T17:55:39.431Z,7.38
2022-10-04T17:58:18.184Z,7.63
2022-10-04T18:01:08.077Z,8.80
2022-10-04T18:03:46.679Z,9.93
2022-10-04T18:06:39.230Z,7.50
2022-10-04T18:09:29.772Z,9.65
2022-10-04T18:12:20.871Z,11.27
2022-10-04T18:15:23.732Z,8.80
2022-10-04T18:17:53.762Z,10.95
2022-10-04T18:20:35.094Z,8.57
2022-10-04T18:23:21.137Z,10.35
2022-10-04T18:25:59.835Z,7.00
2022-10-04T18:28:28.035Z,8.02
2022-10-04T18:31:00.426Z,6.82
2022-10-04T18:33:50.124Z,11.38
2022-10-04T18:36:31.270Z,9.90
2022-10-04T18:39:11.603Z,8.48
2022-10-04T18:42:07.151Z,7.28
2022-10-04T18:45:03.055Z,6.95
2022-10-04T18:47:40.452Z,7.47
2022-10-04T18:50:25.066Z,7.82
2022-10-04T18:53:13.662Z,9.15
2022-10-04T18:56:07.790Z,9.52
2022-10-04T18:59:00.593Z,8.55
2022-10-04T19:02:02.961Z,8.05
2022-10-04T19:04:59.152Z,14.40
2022-10-04T19:07:57.335Z,9.20
2022-10-04T19:10:47.397Z,9.45
2022-10-04T19:13:21.608Z,14.18
2022-10-04T19:16:16.850Z,7.82
2022-10-04T19:19:05.005Z,10.18
2022-10-04T19:22:01.192Z,7.20
2022-10-04T19:24:38.440Z,8.82
2022-10-04T19:27:22.017Z,7.43
2022-10-04T19:33:14.514Z,9.23
2022-10-04T19:35:58.435Z,5.93
2022-10-04T19:38:44.287Z,7.28
2022-10-04T19:41:30.681Z,11.27
2022-10-04T19:44:30.304Z,7.80
2022-10-04T19:47:08.773Z,8.82
2022-10-04T19:50:03.871Z,11.20
2022-10-04T19:52:58.585Z,6.93
2022-10-04T19:58:18.290Z,7.78
2022-10-04T20:00:50.497Z,5.93
2022-10-04T20:03:19.641Z,8.63
2022-10-04T20:05:49.992Z,6.10
2022-10-04T20:08:47.498Z,8.68
2022-10-04T20:11:28.388Z,8.27
2022-10-04T20:14:19.897Z,6.97
2022-10-04T20:16:57.066Z,7.00
2022-10-04T20:19:31.579Z,8.60
2022-10-04T20:22:10.286Z,7.53
2022-10-04T20:24:41.395Z,8.57
2022-10-04T20:27:31.863Z,8.18
2022-10-04T20:30:04.663Z,10.60
2022-10-04T20:32:37.012Z,8.32
2022-10-04T20:35:14.412Z,11.32
2022-10-04T20:37:44.986Z,9.88
2022-10-04T20:40:34.752Z,5.57
2022-10-04T20:43:14.681Z,5.60
2022-10-04T20:45:55.435Z,8.55
2022-10-04T20:48:30.147Z,7.72
2022-10-04T20:53:36.890Z,8.20
2022-10-04T20:56:19.072Z,8.60
2022-10-04T20:58:59.657Z,8.45
2022-10-04T21:01:42.571Z,9.93
2022-10-04T21:04:17.570Z,7.10
2022-10-04T21:06:58.583Z,8.85
2022-10-04T21:09:28.086Z,6.07
2022-10-04T21:11:57.201Z,6.72
2022-10-04T21:14:27.579Z,7.53
2022-10-04T21:17:02.417Z,7.32
2022-10-04T21:19:33.754Z,7.22
2022-10-04T21:22:09.238Z,8.80
2022-10-04T21:24:38.274Z,6.28
2022-10-04T21:27:11.836Z,8.77
2022-10-04T21:29:40.303Z,8.35
2022-10-04T21:32:08.252Z,6.95
2022-10-04T21:34:54.091Z,6.70
2022-10-04T21:37:23.009Z,9.20
2022-10-04T21:39:51.025Z,8.27
2022-10-04T21:42:20.764Z,9.05
2022-10-04T21:44:49.239Z,9.73
2022-10-04T21:47:18.236Z,8.38
2022-10-04T21:49:46.324Z,7.28
2022-10-04T21:52:14.856Z,9.50
2022-10-04T21:54:43.119Z,8.40
2022-10-04T21:57:11.729Z,10.95
2022-10-04T21:59:40.459Z,10.15
2022-10-04T22:02:08.661Z,6.55
2022-10-04T22:04:38.219Z,8.57
2022-10-04T22:07:06.468Z,7.38
2022-10-04T22:09:36.122Z,8.63
2022-10-04T22:12:04.650Z,7.00
2022-10-04T22:14:32.821Z,9.15
2022-10-04T22:17:01.162Z,8.45
2022-10-04T22:19:29.400Z,11.00
2022-10-04T22:21:57.552Z,8.52
2022-10-04T22:24:25.695Z,8.93
2022-10-04T22:26:53.610Z,9.10
2022-10-04T22:29:21.824Z,9.30
2022-10-04T22:31:53.280Z,14.45
2022-10-04T22:34:23.430Z,7.68
2022-10-04T22:36:53.165Z,9.63
2022-10-04T22:39:22.047Z,9.45
2022-10-04T22:41:56.144Z,7.15
2022-10-04T22:44:29.366Z,9.82
2022-10-04T22:47:00.171Z,8.63
2022-10-04T22:49:34.056Z,10.80
2022-10-04T22:52:13.846Z,7.53
2022-10-04T22:54:48.776Z,9.88
2022-10-04T22:57:19.176Z,7.53
2022-10-04T22:59:52.468Z,8.27
2022-10-04T23:02:29.166Z,9.73
2022-10-04T23:05:02.214Z,9.30
2022-10-04T23:07:32.829Z,7.13
2022-10-04T23:10:06.095Z,9.43
2022-10-04T23:12:34.164Z,10.00
2022-10-04T23:15:02.806Z,8.98
2022-10-04T23:17:37.028Z,10.63
2022-10-04T23:20:13.735Z,10.57
2022-10-04T23:22:45.329Z,8.35
2022-10-04T23:25:45.903Z,7.57
2022-10-04T23:28:16.584Z,8.93
2022-10-04T23:30:48.378Z,9.48
2022-10-04T23:33:21.956Z,9.23
2022-10-04T23:35:51.190Z,11.10
2022-10-04T23:38:21.945Z,10.13
2022-10-04T23:40:49.797Z,8.68
2022-10-04T23:43:25.141Z,10.98
2022-10-04T23:45:57.909Z,9.57
2022-10-04T23:48:28.224Z,10.85
2022-10-04T23:51:00.287Z,8.95
2022-10-04T23:53:30.986Z,9.20
2022-10-04T23:56:04.471Z,9.18
2022-10-04T23:58:37.368Z,8.70
